Terminal Aerodrome Forecast
Issued by NWS

Home | Current Version | Previous Version | Text Only | Print | Product List | Glossary On
Versions: 1 2 3 4 5 6 7 8 9 10 11 12 13 14 15
000
FTUS46 KPDT 251733
TAFDLS
TAF
KDLS 251733Z 2518/2618 28010KT P6SM FEW050 OVC150
     FM260000 31007KT P6SM -SHRA BKN050 OVC100
     FM260500 30008KT P6SM BKN050
     FM261400 30010KT P6SM -RA BKN040 OVC050=

USA.gov is the U.S. government's official web portal to all federal, state and local government web resources and services.